sensor_id;sensor_type;location;lat;lon;timestamp;temperature;humidity
8709;DHT22;4391;48.678;9.280;2023-12-20T00:00:21;6.20;99.90
8709;DHT22;4391;48.678;9.280;2023-12-20T00:02:47;6.10;99.90
8709;DHT22;4391;48.678;9.280;2023-12-20T00:05:14;6.10;99.90
8709;DHT22;4391;48.678;9.280;2023-12-20T00:07:41;6.30;99.90
8709;DHT22;4391;48.678;9.280;2023-12-20T00:10:10;6.20;1.00
8709;DHT22;4391;48.678;9.280;2023-12-20T00:12:38;6.20;47.40
8709;DHT22;4391;48.678;9.280;2023-12-20T00:15:06;6.20;1.00
8709;DHT22;4391;48.678;9.280;2023-12-20T00:17:33;6.20;1.00
8709;DHT22;4391;48.678;9.280;2023-12-20T00:20:00;6.20;99.90
8709;DHT22;4391;48.678;9.280;2023-12-20T00:22:27;6.30;1.00
8709;DHT22;4391;48.678;9.280;2023-12-20T00:24:54;6.30;1.00
8709;DHT22;4391;48.678;9.280;2023-12-20T00:27:22;6.20;1.00
8709;DHT22;4391;48.678;9.280;2023-12-20T00:29:49;6.20;99.90
8709;DHT22;4391;48.678;9.280;2023-12-20T00:32:16;6.20;1.00
8709;DHT22;4391;48.678;9.280;2023-12-20T00:34:43;6.00;99.90
8709;DHT22;4391;48.678;9.280;2023-12-20T00:37:10;5.90;99.90
8709;DHT22;4391;48.678;9.280;2023-12-20T00:39:37;5.80;1.00
8709;DHT22;4391;48.678;9.280;2023-12-20T00:42:04;5.70;1.00
8709;DHT22;4391;48.678;9.280;2023-12-20T00:44:33;5.60;1.00
8709;DHT22;4391;48.678;9.280;2023-12-20T00:46:59;5.60;1.00
8709;DHT22;4391;48.678;9.280;2023-12-20T00:49:26;5.70;1.00
8709;DHT22;4391;48.678;9.280;2023-12-20T00:51:53;5.70;1.00
8709;DHT22;4391;48.678;9.280;2023-12-20T00:54:20;5.70;1.00
8709;DHT22;4391;48.678;9.280;2023-12-20T00:56:47;5.70;1.00
8709;DHT22;4391;48.678;9.280;2023-12-20T00:59:13;5.70;1.00
8709;DHT22;4391;48.678;9.280;2023-12-20T01:01:42;5.70;1.00
8709;DHT22;4391;48.678;9.280;2023-12-20T01:04:09;5.60;1.00
8709;DHT22;4391;48.678;9.280;2023-12-20T01:06:38;5.70;1.00
8709;DHT22;4391;48.678;9.280;2023-12-20T01:09:05;5.70;1.00
8709;DHT22;4391;48.678;9.280;2023-12-20T01:11:32;5.80;1.00
8709;DHT22;4391;48.678;9.280;2023-12-20T01:13:59;5.80;1.00
8709;DHT22;4391;48.678;9.280;2023-12-20T01:16:26;5.70;1.00
8709;DHT22;4391;48.678;9.280;2023-12-20T01:18:54;5.80;1.00
8709;DHT22;4391;48.678;9.280;2023-12-20T01:21:21;5.70;1.00
8709;DHT22;4391;48.678;9.280;2023-12-20T01:23:47;5.60;10.50
8709;DHT22;4391;48.678;9.280;2023-12-20T01:26:15;5.60;26.00
8709;DHT22;4391;48.678;9.280;2023-12-20T01:28:42;5.60;27.40
8709;DHT22;4391;48.678;9.280;2023-12-20T01:31:09;5.60;49.90
8709;DHT22;4391;48.678;9.280;2023-12-20T01:33:36;5.60;61.00
8709;DHT22;4391;48.678;9.280;2023-12-20T01:36:04;5.50;86.30
8709;DHT22;4391;48.678;9.280;2023-12-20T01:38:31;5.50;97.80
8709;DHT22;4391;48.678;9.280;2023-12-20T01:40:58;5.50;99.90
8709;DHT22;4391;48.678;9.280;2023-12-20T01:43:25;5.50;99.90
8709;DHT22;4391;48.678;9.280;2023-12-20T01:45:52;5.50;99.90
8709;DHT22;4391;48.678;9.280;2023-12-20T01:48:20;5.40;99.90
8709;DHT22;4391;48.678;9.280;2023-12-20T01:50:47;5.40;99.90
8709;DHT22;4391;48.678;9.280;2023-12-20T01:53:16;5.40;99.90
8709;DHT22;4391;48.678;9.280;2023-12-20T01:55:44;5.40;99.90
8709;DHT22;4391;48.678;9.280;2023-12-20T01:58:12;5.40;99.90
8709;DHT22;4391;48.678;9.280;2023-12-20T02:00:40;5.40;99.90
8709;DHT22;4391;48.678;9.280;2023-12-20T02:03:07;5.30;99.90
8709;DHT22;4391;48.678;9.280;2023-12-20T02:05:35;5.40;99.90
8709;DHT22;4391;48.678;9.280;2023-12-20T02:08:02;5.40;99.90
8709;DHT22;4391;48.678;9.280;2023-12-20T02:10:31;5.40;99.90
8709;DHT22;4391;48.678;9.280;2023-12-20T02:12:58;5.40;99.90
8709;DHT22;4391;48.678;9.280;2023-12-20T02:15:25;5.50;99.90
8709;DHT22;4391;48.678;9.280;2023-12-20T02:17:52;5.40;99.90
8709;DHT22;4391;48.678;9.280;2023-12-20T02:20:19;5.40;99.90
8709;DHT22;4391;48.678;9.280;2023-12-20T02:22:47;5.40;99.90
8709;DHT22;4391;48.678;9.280;2023-12-20T02:25:14;5.30;99.90
8709;DHT22;4391;48.678;9.280;2023-12-20T02:27:41;5.40;99.90
8709;DHT22;4391;48.678;9.280;2023-12-20T02:30:09;5.40;99.90
8709;DHT22;4391;48.678;9.280;2023-12-20T02:32:36;5.40;99.90
8709;DHT22;4391;48.678;9.280;2023-12-20T02:35:03;5.30;99.90
8709;DHT22;4391;48.678;9.280;2023-12-20T02:37:30;5.30;99.90
8709;DHT22;4391;48.678;9.280;2023-12-20T02:39:59;5.30;99.90
8709;DHT22;4391;48.678;9.280;2023-12-20T02:42:25;5.30;99.90
8709;DHT22;4391;48.678;9.280;2023-12-20T02:44:52;5.30;99.90
8709;DHT22;4391;48.678;9.280;2023-12-20T02:47:20;5.30;99.90
8709;DHT22;4391;48.678;9.280;2023-12-20T02:49:47;5.30;99.90
8709;DHT22;4391;48.678;9.280;2023-12-20T02:52:14;5.30;99.90
8709;DHT22;4391;48.678;9.280;2023-12-20T02:54:41;5.30;99.90
8709;DHT22;4391;48.678;9.280;2023-12-20T02:57:09;5.30;99.90
8709;DHT22;4391;48.678;9.280;2023-12-20T02:59:36;5.40;99.90
8709;DHT22;4391;48.678;9.280;2023-12-20T03:02:03;5.30;99.90
8709;DHT22;4391;48.678;9.280;2023-12-20T03:04:30;5.40;99.90
8709;DHT22;4391;48.678;9.280;2023-12-20T03:06:57;5.30;99.90
8709;DHT22;4391;48.678;9.280;2023-12-20T03:09:23;5.40;99.90
8709;DHT22;4391;48.678;9.280;2023-12-20T03:11:50;5.40;99.90
8709;DHT22;4391;48.678;9.280;2023-12-20T03:14:18;5.30;99.90
8709;DHT22;4391;48.678;9.280;2023-12-20T03:16:47;5.40;99.90
8709;DHT22;4391;48.678;9.280;2023-12-20T03:19:14;5.30;99.90
8709;DHT22;4391;48.678;9.280;2023-12-20T03:21:41;5.30;99.90
8709;DHT22;4391;48.678;9.280;2023-12-20T03:24:08;5.30;99.90
8709;DHT22;4391;48.678;9.280;2023-12-20T03:26:35;5.30;99.90
8709;DHT22;4391;48.678;9.280;2023-12-20T03:29:01;5.30;99.90
8709;DHT22;4391;48.678;9.280;2023-12-20T03:31:30;5.30;99.90
8709;DHT22;4391;48.678;9.280;2023-12-20T03:33:59;5.30;99.90
8709;DHT22;4391;48.678;9.280;2023-12-20T03:36:25;5.30;99.90
8709;DHT22;4391;48.678;9.280;2023-12-20T03:38:52;5.30;99.90
8709;DHT22;4391;48.678;9.280;2023-12-20T03:41:19;5.30;99.90
8709;DHT22;4391;48.678;9.280;2023-12-20T03:43:46;5.30;99.90
8709;DHT22;4391;48.678;9.280;2023-12-20T03:46:13;5.30;99.90
8709;DHT22;4391;48.678;9.280;2023-12-20T03:48:41;5.30;99.90
8709;DHT22;4391;48.678;9.280;2023-12-20T03:51:08;5.30;99.90
8709;DHT22;4391;48.678;9.280;2023-12-20T03:53:35;5.20;99.90
8709;DHT22;4391;48.678;9.280;2023-12-20T03:56:02;5.20;99.90
8709;DHT22;4391;48.678;9.280;2023-12-20T03:58:29;5.20;99.90
8709;DHT22;4391;48.678;9.280;2023-12-20T04:00:56;5.20;99.90
8709;DHT22;4391;48.678;9.280;2023-12-20T04:03:25;5.20;99.90
8709;DHT22;4391;48.678;9.280;2023-12-20T04:05:53;5.20;99.90
8709;DHT22;4391;48.678;9.280;2023-12-20T04:08:20;5.20;99.90
8709;DHT22;4391;48.678;9.280;2023-12-20T04:10:47;5.20;99.90
8709;DHT22;4391;48.678;9.280;2023-12-20T04:13:17;5.20;99.90
8709;DHT22;4391;48.678;9.280;2023-12-20T04:15:43;5.20;99.90
8709;DHT22;4391;48.678;9.280;2023-12-20T04:18:10;5.20;99.90
8709;DHT22;4391;48.678;9.280;2023-12-20T04:20:37;5.20;99.90
8709;DHT22;4391;48.678;9.280;2023-12-20T04:23:05;5.10;99.90
8709;DHT22;4391;48.678;9.280;2023-12-20T04:25:32;5.10;99.90
8709;DHT22;4391;48.678;9.280;2023-12-20T04:27:59;5.10;99.90
8709;DHT22;4391;48.678;9.280;2023-12-20T04:30:26;5.10;99.90
8709;DHT22;4391;48.678;9.280;2023-12-20T04:32:52;5.10;99.90
8709;DHT22;4391;48.678;9.280;2023-12-20T04:35:19;5.10;99.90
8709;DHT22;4391;48.678;9.280;2023-12-20T04:37:46;5.00;99.90
8709;DHT22;4391;48.678;9.280;2023-12-20T04:40:16;5.00;99.90
8709;DHT22;4391;48.678;9.280;2023-12-20T04:42:43;5.00;99.90
8709;DHT22;4391;48.678;9.280;2023-12-20T04:45:10;5.00;99.90
8709;DHT22;4391;48.678;9.280;2023-12-20T04:47:38;4.90;99.90
8709;DHT22;4391;48.678;9.280;2023-12-20T04:50:06;4.90;99.90
8709;DHT22;4391;48.678;9.280;2023-12-20T04:52:33;4.90;99.90
8709;DHT22;4391;48.678;9.280;2023-12-20T04:55:00;4.90;99.90
8709;DHT22;4391;48.678;9.280;2023-12-20T04:57:28;4.90;99.90
8709;DHT22;4391;48.678;9.280;2023-12-20T04:59:55;4.90;99.90
8709;DHT22;4391;48.678;9.280;2023-12-20T05:02:22;4.90;99.90
8709;DHT22;4391;48.678;9.280;2023-12-20T05:04:49;4.80;99.90
8709;DHT22;4391;48.678;9.280;2023-12-20T05:07:16;4.80;99.90
8709;DHT22;4391;48.678;9.280;2023-12-20T05:09:42;4.80;99.90
8709;DHT22;4391;48.678;9.280;2023-12-20T05:12:09;4.80;99.90
8709;DHT22;4391;48.678;9.280;2023-12-20T05:14:37;4.80;99.90
8709;DHT22;4391;48.678;9.280;2023-12-20T05:17:04;4.80;99.90
8709;DHT22;4391;48.678;9.280;2023-12-20T05:19:31;4.80;99.90
8709;DHT22;4391;48.678;9.280;2023-12-20T05:22:00;4.80;99.90
8709;DHT22;4391;48.678;9.280;2023-12-20T05:24:27;4.80;99.90
8709;DHT22;4391;48.678;9.280;2023-12-20T05:26:54;4.80;99.90
8709;DHT22;4391;48.678;9.280;2023-12-20T05:29:21;4.80;99.90
8709;DHT22;4391;48.678;9.280;2023-12-20T05:31:49;4.80;99.90
8709;DHT22;4391;48.678;9.280;2023-12-20T05:34:16;4.70;99.90
8709;DHT22;4391;48.678;9.280;2023-12-20T05:36:43;4.80;99.90
8709;DHT22;4391;48.678;9.280;2023-12-20T05:39:09;4.80;99.90
8709;DHT22;4391;48.678;9.280;2023-12-20T05:41:36;4.80;99.90
8709;DHT22;4391;48.678;9.280;2023-12-20T05:44:03;4.80;99.90
8709;DHT22;4391;48.678;9.280;2023-12-20T05:46:30;4.80;99.90
8709;DHT22;4391;48.678;9.280;2023-12-20T05:48:58;4.70;99.90
8709;DHT22;4391;48.678;9.280;2023-12-20T05:51:25;4.80;99.90
8709;DHT22;4391;48.678;9.280;2023-12-20T05:53:52;4.80;99.90
8709;DHT22;4391;48.678;9.280;2023-12-20T05:56:19;4.80;99.90
8709;DHT22;4391;48.678;9.280;2023-12-20T05:58:46;4.80;99.90
8709;DHT22;4391;48.678;9.280;2023-12-20T06:01:14;4.80;99.90
8709;DHT22;4391;48.678;9.280;2023-12-20T06:03:42;4.80;99.90
8709;DHT22;4391;48.678;9.280;2023-12-20T06:06:10;4.80;99.90
8709;DHT22;4391;48.678;9.280;2023-12-20T06:08:38;4.80;99.90
8709;DHT22;4391;48.678;9.280;2023-12-20T06:11:05;4.70;99.90
8709;DHT22;4391;48.678;9.280;2023-12-20T06:13:32;4.80;99.90
8709;DHT22;4391;48.678;9.280;2023-12-20T06:15:58;4.80;99.90
8709;DHT22;4391;48.678;9.280;2023-12-20T06:18:26;4.80;99.90
8709;DHT22;4391;48.678;9.280;2023-12-20T06:20:52;4.70;99.90
8709;DHT22;4391;48.678;9.280;2023-12-20T06:23:21;4.70;99.90
8709;DHT22;4391;48.678;9.280;2023-12-20T06:25:47;4.70;99.90
8709;DHT22;4391;48.678;9.280;2023-12-20T06:28:14;4.70;99.90
8709;DHT22;4391;48.678;9.280;2023-12-20T06:30:41;4.70;99.90
8709;DHT22;4391;48.678;9.280;2023-12-20T06:33:08;4.70;99.90
8709;DHT22;4391;48.678;9.280;2023-12-20T06:35:35;4.70;99.90
8709;DHT22;4391;48.678;9.280;2023-12-20T06:38:02;4.70;99.90
8709;DHT22;4391;48.678;9.280;2023-12-20T06:40:31;4.70;99.90
8709;DHT22;4391;48.678;9.280;2023-12-20T06:42:58;4.70;99.90
8709;DHT22;4391;48.678;9.280;2023-12-20T06:45:25;4.70;99.90
8709;DHT22;4391;48.678;9.280;2023-12-20T06:47:52;4.70;99.90
8709;DHT22;4391;48.678;9.280;2023-12-20T06:50:20;4.70;99.90
8709;DHT22;4391;48.678;9.280;2023-12-20T06:52:47;4.70;99.90
8709;DHT22;4391;48.678;9.280;2023-12-20T06:55:13;4.80;99.90
8709;DHT22;4391;48.678;9.280;2023-12-20T06:57:41;4.70;99.90
8709;DHT22;4391;48.678;9.280;2023-12-20T07:00:10;4.70;99.90
8709;DHT22;4391;48.678;9.280;2023-12-20T07:02:37;4.80;99.90
8709;DHT22;4391;48.678;9.280;2023-12-20T07:05:05;4.80;99.90
8709;DHT22;4391;48.678;9.280;2023-12-20T07:07:32;4.80;99.90
8709;DHT22;4391;48.678;9.280;2023-12-20T07:09:58;4.80;99.90
8709;DHT22;4391;48.678;9.280;2023-12-20T07:12:25;4.90;99.90
8709;DHT22;4391;48.678;9.280;2023-12-20T07:14:54;4.90;99.90
8709;DHT22;4391;48.678;9.280;2023-12-20T07:17:21;4.90;99.90
8709;DHT22;4391;48.678;9.280;2023-12-20T07:19:48;4.90;99.90
8709;DHT22;4391;48.678;9.280;2023-12-20T07:22:15;4.90;99.90
8709;DHT22;4391;48.678;9.280;2023-12-20T07:24:42;4.80;99.90
8709;DHT22;4391;48.678;9.280;2023-12-20T07:27:09;4.80;99.90
8709;DHT22;4391;48.678;9.280;2023-12-20T07:29:36;4.80;99.90
8709;DHT22;4391;48.678;9.280;2023-12-20T07:32:05;4.80;99.90
8709;DHT22;4391;48.678;9.280;2023-12-20T07:34:32;4.80;99.90
8709;DHT22;4391;48.678;9.280;2023-12-20T07:36:59;4.80;99.90
8709;DHT22;4391;48.678;9.280;2023-12-20T07:39:26;4.90;99.90
8709;DHT22;4391;48.678;9.280;2023-12-20T07:41:53;4.90;99.90
8709;DHT22;4391;48.678;9.280;2023-12-20T07:44:20;4.90;99.90
8709;DHT22;4391;48.678;9.280;2023-12-20T07:46:47;5.00;99.90
8709;DHT22;4391;48.678;9.280;2023-12-20T07:49:15;5.00;99.90
8709;DHT22;4391;48.678;9.280;2023-12-20T07:51:42;5.00;99.90
8709;DHT22;4391;48.678;9.280;2023-12-20T07:54:09;5.00;99.90
8709;DHT22;4391;48.678;9.280;2023-12-20T07:56:36;5.10;99.90
8709;DHT22;4391;48.678;9.280;2023-12-20T07:59:03;5.10;99.90
8709;DHT22;4391;48.678;9.280;2023-12-20T08:01:29;5.10;99.90
8709;DHT22;4391;48.678;9.280;2023-12-20T08:03:56;5.10;99.90
8709;DHT22;4391;48.678;9.280;2023-12-20T08:06:25;5.00;99.90
8709;DHT22;4391;48.678;9.280;2023-12-20T08:08:52;5.00;99.90
8709;DHT22;4391;48.678;9.280;2023-12-20T08:11:19;5.00;99.90
8709;DHT22;4391;48.678;9.280;2023-12-20T08:13:46;5.00;99.90
8709;DHT22;4391;48.678;9.280;2023-12-20T08:16:12;4.90;99.90
8709;DHT22;4391;48.678;9.280;2023-12-20T08:18:43;4.90;99.90
8709;DHT22;4391;48.678;9.280;2023-12-20T08:21:10;4.90;99.90
8709;DHT22;4391;48.678;9.280;2023-12-20T08:23:40;5.00;99.90
8709;DHT22;4391;48.678;9.280;2023-12-20T08:26:07;5.00;99.90
8709;DHT22;4391;48.678;9.280;2023-12-20T08:28:34;5.00;99.90
8709;DHT22;4391;48.678;9.280;2023-12-20T08:31:01;5.00;99.90
8709;DHT22;4391;48.678;9.280;2023-12-20T08:33:28;5.00;99.90
8709;DHT22;4391;48.678;9.280;2023-12-20T08:35:55;5.00;99.90
8709;DHT22;4391;48.678;9.280;2023-12-20T08:38:22;5.00;99.90
8709;DHT22;4391;48.678;9.280;2023-12-20T08:40:50;5.00;99.90
8709;DHT22;4391;48.678;9.280;2023-12-20T08:43:17;4.90;99.90
8709;DHT22;4391;48.678;9.280;2023-12-20T08:45:44;4.90;99.90
8709;DHT22;4391;48.678;9.280;2023-12-20T08:48:11;4.80;99.90
8709;DHT22;4391;48.678;9.280;2023-12-20T08:50:38;4.80;99.90
8709;DHT22;4391;48.678;9.280;2023-12-20T08:53:05;4.70;99.90
8709;DHT22;4391;48.678;9.280;2023-12-20T08:55:32;4.70;99.90
8709;DHT22;4391;48.678;9.280;2023-12-20T08:58:01;4.70;99.90
8709;DHT22;4391;48.678;9.280;2023-12-20T09:00:28;4.70;99.90
8709;DHT22;4391;48.678;9.280;2023-12-20T09:02:55;4.70;99.90
8709;DHT22;4391;48.678;9.280;2023-12-20T09:05:22;4.70;99.90
8709;DHT22;4391;48.678;9.280;2023-12-20T09:07:49;4.60;99.90
8709;DHT22;4391;48.678;9.280;2023-12-20T09:10:16;4.60;99.90
8709;DHT22;4391;48.678;9.280;2023-12-20T09:12:47;4.70;99.90
8709;DHT22;4391;48.678;9.280;2023-12-20T09:15:15;4.70;99.90
8709;DHT22;4391;48.678;9.280;2023-12-20T09:17:42;4.70;99.90
8709;DHT22;4391;48.678;9.280;2023-12-20T09:20:10;4.90;99.90
8709;DHT22;4391;48.678;9.280;2023-12-20T09:22:39;5.00;99.90
8709;DHT22;4391;48.678;9.280;2023-12-20T09:25:08;5.20;99.90
8709;DHT22;4391;48.678;9.280;2023-12-20T09:27:34;5.20;99.90
8709;DHT22;4391;48.678;9.280;2023-12-20T09:30:02;5.30;27.20
8709;DHT22;4391;48.678;9.280;2023-12-20T09:32:31;5.30;1.00
8709;DHT22;4391;48.678;9.280;2023-12-20T09:34:58;5.30;26.50
8709;DHT22;4391;48.678;9.280;2023-12-20T09:37:26;5.30;59.20
8709;DHT22;4391;48.678;9.280;2023-12-20T09:39:53;5.20;1.00
8709;DHT22;4391;48.678;9.280;2023-12-20T09:42:26;5.20;1.00
8709;DHT22;4391;48.678;9.280;2023-12-20T09:44:55;5.10;1.00
8709;DHT22;4391;48.678;9.280;2023-12-20T09:47:24;5.10;1.00
8709;DHT22;4391;48.678;9.280;2023-12-20T09:49:53;5.10;1.00
8709;DHT22;4391;48.678;9.280;2023-12-20T09:52:22;5.10;1.00
8709;DHT22;4391;48.678;9.280;2023-12-20T09:54:52;5.20;1.00
8709;DHT22;4391;48.678;9.280;2023-12-20T09:57:20;5.10;1.00
8709;DHT22;4391;48.678;9.280;2023-12-20T09:59:47;5.20;1.00
8709;DHT22;4391;48.678;9.280;2023-12-20T10:02:14;5.50;1.00
8709;DHT22;4391;48.678;9.280;2023-12-20T10:04:46;5.90;1.00
8709;DHT22;4391;48.678;9.280;2023-12-20T10:07:15;6.30;1.00
8709;DHT22;4391;48.678;9.280;2023-12-20T10:09:42;6.60;1.00
8709;DHT22;4391;48.678;9.280;2023-12-20T10:12:10;7.00;1.00
8709;DHT22;4391;48.678;9.280;2023-12-20T10:14:38;7.40;99.90
8709;DHT22;4391;48.678;9.280;2023-12-20T10:17:06;7.60;99.90
8709;DHT22;4391;48.678;9.280;2023-12-20T10:19:34;7.60;99.90
8709;DHT22;4391;48.678;9.280;2023-12-20T10:22:01;7.70;99.90
8709;DHT22;4391;48.678;9.280;2023-12-20T10:24:30;7.80;1.00
8709;DHT22;4391;48.678;9.280;2023-12-20T10:27:03;8.10;1.00
8709;DHT22;4391;48.678;9.280;2023-12-20T10:29:33;8.10;99.90
8709;DHT22;4391;48.678;9.280;2023-12-20T10:32:21;8.40;99.90
8709;DHT22;4391;48.678;9.280;2023-12-20T10:34:49;8.40;99.90
8709;DHT22;4391;48.678;9.280;2023-12-20T10:37:16;8.70;66.50
8709;DHT22;4391;48.678;9.280;2023-12-20T10:39:49;8.70;75.30
8709;DHT22;4391;48.678;9.280;2023-12-20T10:42:16;8.80;50.00
8709;DHT22;4391;48.678;9.280;2023-12-20T10:44:44;9.10;1.00
8709;DHT22;4391;48.678;9.280;2023-12-20T10:47:11;9.50;1.00
8709;DHT22;4391;48.678;9.280;2023-12-20T10:49:40;9.40;1.00
8709;DHT22;4391;48.678;9.280;2023-12-20T10:52:09;9.70;1.00
8709;DHT22;4391;48.678;9.280;2023-12-20T10:54:38;9.30;1.00
8709;DHT22;4391;48.678;9.280;2023-12-20T10:57:07;9.00;1.00
8709;DHT22;4391;48.678;9.280;2023-12-20T10:59:36;9.30;1.00
8709;DHT22;4391;48.678;9.280;2023-12-20T11:02:04;8.90;1.00
8709;DHT22;4391;48.678;9.280;2023-12-20T11:04:39;8.70;1.00
8709;DHT22;4391;48.678;9.280;2023-12-20T11:07:17;8.30;1.00
8709;DHT22;4391;48.678;9.280;2023-12-20T11:09:52;7.80;1.00
8709;DHT22;4391;48.678;9.280;2023-12-20T11:12:32;7.50;1.00
8709;DHT22;4391;48.678;9.280;2023-12-20T11:15:03;7.20;1.00
8709;DHT22;4391;48.678;9.280;2023-12-20T11:17:31;7.20;10.20
8709;DHT22;4391;48.678;9.280;2023-12-20T11:20:07;7.20;1.00
8709;DHT22;4391;48.678;9.280;2023-12-20T11:22:36;7.00;1.00
8709;DHT22;4391;48.678;9.280;2023-12-20T11:25:06;7.10;1.00
8709;DHT22;4391;48.678;9.280;2023-12-20T11:27:35;7.20;1.00
8709;DHT22;4391;48.678;9.280;2023-12-20T11:30:04;7.20;19.90
8709;DHT22;4391;48.678;9.280;2023-12-20T11:32:34;7.10;1.00
8709;DHT22;4391;48.678;9.280;2023-12-20T11:35:17;7.20;1.00
8709;DHT22;4391;48.678;9.280;2023-12-20T11:37:45;7.10;1.00
8709;DHT22;4391;48.678;9.280;2023-12-20T11:40:15;7.00;1.00
8709;DHT22;4391;48.678;9.280;2023-12-20T11:42:44;6.80;1.00
8709;DHT22;4391;48.678;9.280;2023-12-20T11:45:13;6.70;1.00
8709;DHT22;4391;48.678;9.280;2023-12-20T11:47:42;6.60;1.00
8709;DHT22;4391;48.678;9.280;2023-12-20T11:50:09;6.50;1.00
8709;DHT22;4391;48.678;9.280;2023-12-20T11:52:36;6.50;1.00
8709;DHT22;4391;48.678;9.280;2023-12-20T11:55:04;6.70;1.00
8709;DHT22;4391;48.678;9.280;2023-12-20T11:57:31;6.90;1.00
8709;DHT22;4391;48.678;9.280;2023-12-20T12:00:00;7.00;1.00
8709;DHT22;4391;48.678;9.280;2023-12-20T12:02:27;7.10;1.00
8709;DHT22;4391;48.678;9.280;2023-12-20T12:04:53;7.00;1.00
8709;DHT22;4391;48.678;9.280;2023-12-20T12:07:22;7.10;1.00
8709;DHT22;4391;48.678;9.280;2023-12-20T12:09:49;6.80;1.00
8709;DHT22;4391;48.678;9.280;2023-12-20T12:12:17;6.60;1.00
8709;DHT22;4391;48.678;9.280;2023-12-20T12:14:44;6.50;1.00
8709;DHT22;4391;48.678;9.280;2023-12-20T12:17:13;6.40;1.00
8709;DHT22;4391;48.678;9.280;2023-12-20T12:19:41;6.20;1.00
8709;DHT22;4391;48.678;9.280;2023-12-20T12:22:09;6.20;1.00
8709;DHT22;4391;48.678;9.280;2023-12-20T12:24:39;6.10;29.40
8709;DHT22;4391;48.678;9.280;2023-12-20T12:27:06;6.10;53.00
8709;DHT22;4391;48.678;9.280;2023-12-20T12:29:32;6.00;99.90
8709;DHT22;4391;48.678;9.280;2023-12-20T12:32:00;6.10;91.00
8709;DHT22;4391;48.678;9.280;2023-12-20T12:34:28;6.00;97.60
8709;DHT22;4391;48.678;9.280;2023-12-20T12:36:56;5.90;99.90
8709;DHT22;4391;48.678;9.280;2023-12-20T12:39:23;5.90;99.90
8709;DHT22;4391;48.678;9.280;2023-12-20T12:41:50;5.90;99.90
8709;DHT22;4391;48.678;9.280;2023-12-20T12:44:17;5.80;99.90
8709;DHT22;4391;48.678;9.280;2023-12-20T12:46:45;5.90;99.90
8709;DHT22;4391;48.678;9.280;2023-12-20T12:49:12;5.90;99.90
8709;DHT22;4391;48.678;9.280;2023-12-20T12:51:43;5.80;36.50
8709;DHT22;4391;48.678;9.280;2023-12-20T12:54:10;5.80;99.20
8709;DHT22;4391;48.678;9.280;2023-12-20T12:56:39;5.80;78.90
8709;DHT22;4391;48.678;9.280;2023-12-20T12:59:06;5.80;73.20
8709;DHT22;4391;48.678;9.280;2023-12-20T13:01:33;5.90;92.80
8709;DHT22;4391;48.678;9.280;2023-12-20T13:04:00;6.00;87.50
8709;DHT22;4391;48.678;9.280;2023-12-20T13:06:28;6.00;23.70
8709;DHT22;4391;48.678;9.280;2023-12-20T13:08:57;6.00;25.40
8709;DHT22;4391;48.678;9.280;2023-12-20T13:11:24;6.00;37.90
8709;DHT22;4391;48.678;9.280;2023-12-20T13:13:51;6.00;80.60
8709;DHT22;4391;48.678;9.280;2023-12-20T13:16:18;6.00;48.60
8709;DHT22;4391;48.678;9.280;2023-12-20T13:18:44;5.90;4.70
8709;DHT22;4391;48.678;9.280;2023-12-20T13:21:11;5.90;86.30
8709;DHT22;4391;48.678;9.280;2023-12-20T13:23:38;6.00;47.80
8709;DHT22;4391;48.678;9.280;2023-12-20T13:26:08;6.00;28.10
8709;DHT22;4391;48.678;9.280;2023-12-20T13:28:35;6.00;11.50
8709;DHT22;4391;48.678;9.280;2023-12-20T13:31:02;6.10;22.70
8709;DHT22;4391;48.678;9.280;2023-12-20T13:33:29;6.00;50.40
8709;DHT22;4391;48.678;9.280;2023-12-20T13:35:56;6.00;51.90
8709;DHT22;4391;48.678;9.280;2023-12-20T13:38:23;6.00;58.70
8709;DHT22;4391;48.678;9.280;2023-12-20T13:40:50;6.00;77.90
8709;DHT22;4391;48.678;9.280;2023-12-20T13:43:19;6.00;70.90
8709;DHT22;4391;48.678;9.280;2023-12-20T13:45:47;6.00;88.40
8709;DHT22;4391;48.678;9.280;2023-12-20T13:48:14;6.00;84.50
8709;DHT22;4391;48.678;9.280;2023-12-20T13:50:41;6.10;44.20
8709;DHT22;4391;48.678;9.280;2023-12-20T13:53:08;6.10;99.90
8709;DHT22;4391;48.678;9.280;2023-12-20T13:55:35;6.10;99.90
8709;DHT22;4391;48.678;9.280;2023-12-20T13:58:01;6.20;99.90
8709;DHT22;4391;48.678;9.280;2023-12-20T14:00:30;6.10;99.90
8709;DHT22;4391;48.678;9.280;2023-12-20T14:02:56;6.10;99.90
8709;DHT22;4391;48.678;9.280;2023-12-20T14:05:24;6.10;99.90
8709;DHT22;4391;48.678;9.280;2023-12-20T14:07:52;6.10;99.90
8709;DHT22;4391;48.678;9.280;2023-12-20T14:10:19;6.10;99.90
8709;DHT22;4391;48.678;9.280;2023-12-20T14:12:46;6.10;99.90
8709;DHT22;4391;48.678;9.280;2023-12-20T14:15:13;6.10;99.90
8709;DHT22;4391;48.678;9.280;2023-12-20T14:17:41;6.00;99.90
8709;DHT22;4391;48.678;9.280;2023-12-20T14:20:09;6.10;99.90
8709;DHT22;4391;48.678;9.280;2023-12-20T14:22:37;6.00;99.90
8709;DHT22;4391;48.678;9.280;2023-12-20T14:25:10;6.00;99.90
8709;DHT22;4391;48.678;9.280;2023-12-20T14:27:37;6.00;99.90
8709;DHT22;4391;48.678;9.280;2023-12-20T14:30:05;6.00;99.90
8709;DHT22;4391;48.678;9.280;2023-12-20T14:32:34;6.00;99.90
8709;DHT22;4391;48.678;9.280;2023-12-20T14:35:04;6.00;99.90
8709;DHT22;4391;48.678;9.280;2023-12-20T14:37:32;5.90;99.90
8709;DHT22;4391;48.678;9.280;2023-12-20T14:39:58;5.90;99.90
8709;DHT22;4391;48.678;9.280;2023-12-20T14:42:25;6.00;99.90
8709;DHT22;4391;48.678;9.280;2023-12-20T14:44:52;5.90;99.90
8709;DHT22;4391;48.678;9.280;2023-12-20T14:47:20;5.80;99.90
8709;DHT22;4391;48.678;9.280;2023-12-20T14:49:47;5.80;99.90
8709;DHT22;4391;48.678;9.280;2023-12-20T14:52:17;5.80;99.90
8709;DHT22;4391;48.678;9.280;2023-12-20T14:54:44;5.70;1.00
8709;DHT22;4391;48.678;9.280;2023-12-20T14:57:11;5.50;1.00
8709;DHT22;4391;48.678;9.280;2023-12-20T14:59:38;5.50;28.30
8709;DHT22;4391;48.678;9.280;2023-12-20T15:02:05;5.50;98.40
8709;DHT22;4391;48.678;9.280;2023-12-20T15:04:32;5.30;1.00
8709;DHT22;4391;48.678;9.280;2023-12-20T15:06:59;5.30;99.90
8709;DHT22;4391;48.678;9.280;2023-12-20T15:09:28;5.20;99.90
8709;DHT22;4391;48.678;9.280;2023-12-20T15:11:55;5.20;99.90
8709;DHT22;4391;48.678;9.280;2023-12-20T15:14:22;5.20;99.90
8709;DHT22;4391;48.678;9.280;2023-12-20T15:16:49;5.10;28.90
8709;DHT22;4391;48.678;9.280;2023-12-20T15:19:16;5.00;74.10
8709;DHT22;4391;48.678;9.280;2023-12-20T15:21:43;5.00;99.90
8709;DHT22;4391;48.678;9.280;2023-12-20T15:24:10;4.90;99.90
8709;DHT22;4391;48.678;9.280;2023-12-20T15:26:42;4.90;1.00
8709;DHT22;4391;48.678;9.280;2023-12-20T15:29:10;4.90;99.90
8709;DHT22;4391;48.678;9.280;2023-12-20T15:31:43;4.80;99.90
8709;DHT22;4391;48.678;9.280;2023-12-20T15:34:10;4.90;99.90
8709;DHT22;4391;48.678;9.280;2023-12-20T15:36:38;4.80;99.90
8709;DHT22;4391;48.678;9.280;2023-12-20T15:39:06;4.70;1.00
8709;DHT22;4391;48.678;9.280;2023-12-20T15:41:34;4.60;1.00
8709;DHT22;4391;48.678;9.280;2023-12-20T15:44:02;4.60;1.00
8709;DHT22;4391;48.678;9.280;2023-12-20T15:46:29;4.50;1.00
8709;DHT22;4391;48.678;9.280;2023-12-20T15:48:56;4.50;1.00
8709;DHT22;4391;48.678;9.280;2023-12-20T15:51:23;4.50;1.00
8709;DHT22;4391;48.678;9.280;2023-12-20T15:53:50;4.40;1.00
8709;DHT22;4391;48.678;9.280;2023-12-20T15:56:17;4.40;1.00
8709;DHT22;4391;48.678;9.280;2023-12-20T15:58:44;4.50;1.00
8709;DHT22;4391;48.678;9.280;2023-12-20T16:01:14;4.50;1.00
8709;DHT22;4391;48.678;9.280;2023-12-20T16:03:41;4.40;1.00
8709;DHT22;4391;48.678;9.280;2023-12-20T16:06:09;4.40;1.00
8709;DHT22;4391;48.678;9.280;2023-12-20T16:08:36;4.40;1.00
8709;DHT22;4391;48.678;9.280;2023-12-20T16:11:03;4.50;1.00
8709;DHT22;4391;48.678;9.280;2023-12-20T16:13:30;4.50;1.00
8709;DHT22;4391;48.678;9.280;2023-12-20T16:15:57;4.60;99.90
8709;DHT22;4391;48.678;9.280;2023-12-20T16:18:25;4.60;99.90
8709;DHT22;4391;48.678;9.280;2023-12-20T16:20:53;4.60;99.90
8709;DHT22;4391;48.678;9.280;2023-12-20T16:23:20;4.60;99.90